sensor_id;sensor_type;location;lat;lon;timestamp;pressure;altitude;pressure_sealevel;temperature;humidity
6349;BME280;3207;42.648;23.406;2023-07-22T00:00:56;99688.78;;;23.00;nan
6349;BME280;3207;42.648;23.406;2023-07-22T00:03:23;99675.06;;;23.10;nan
6349;BME280;3207;42.648;23.406;2023-07-22T00:06:02;99671.63;;;23.16;nan
6349;BME280;3207;42.648;23.406;2023-07-22T00:08:29;99683.13;;;23.23;nan
6349;BME280;3207;42.648;23.406;2023-07-22T00:10:57;99694.84;;;23.29;nan
6349;BME280;3207;42.648;23.406;2023-07-22T00:13:24;99692.81;;;23.38;nan
6349;BME280;3207;42.648;23.406;2023-07-22T00:15:52;99707.19;;;23.43;nan
6349;BME280;3207;42.648;23.406;2023-07-22T00:18:19;99716.06;;;23.50;nan
6349;BME280;3207;42.648;23.406;2023-07-22T00:20:46;99733.31;;;23.54;nan
6349;BME280;3207;42.648;23.406;2023-07-22T00:23:13;99742.75;;;23.57;nan
6349;BME280;3207;42.648;23.406;2023-07-22T00:25:40;99752.63;;;23.63;nan
6349;BME280;3207;42.648;23.406;2023-07-22T00:28:08;99750.78;;;23.63;nan
6349;BME280;3207;42.648;23.406;2023-07-22T00:30:35;99743.19;;;23.67;nan
6349;BME280;3207;42.648;23.406;2023-07-22T00:33:02;99745.66;;;23.68;nan
6349;BME280;3207;42.648;23.406;2023-07-22T00:35:29;99762.94;;;23.73;nan
6349;BME280;3207;42.648;23.406;2023-07-22T00:37:57;99760.03;;;23.74;nan
6349;BME280;3207;42.648;23.406;2023-07-22T00:40:24;99759.63;;;23.77;nan
6349;BME280;3207;42.648;23.406;2023-07-22T00:42:50;99765.59;;;23.79;nan
6349;BME280;3207;42.648;23.406;2023-07-22T00:45:19;99778.56;;;23.82;nan
6349;BME280;3207;42.648;23.406;2023-07-22T00:47:46;99789.81;;;23.84;nan
6349;BME280;3207;42.648;23.406;2023-07-22T00:50:14;99801.13;;;23.86;nan
6349;BME280;3207;42.648;23.406;2023-07-22T00:52:41;99806.09;;;23.89;nan
6349;BME280;3207;42.648;23.406;2023-07-22T00:55:08;99791.31;;;23.93;nan
6349;BME280;3207;42.648;23.406;2023-07-22T00:57:36;99787.59;;;23.94;nan
6349;BME280;3207;42.648;23.406;2023-07-22T01:00:04;99790.91;;;24.03;nan
6349;BME280;3207;42.648;23.406;2023-07-22T01:02:33;99776.31;;;24.05;nan
6349;BME280;3207;42.648;23.406;2023-07-22T01:05:00;99785.56;;;24.09;nan
6349;BME280;3207;42.648;23.406;2023-07-22T01:07:26;99781.66;;;24.12;nan
6349;BME280;3207;42.648;23.406;2023-07-22T01:09:56;99788.47;;;24.15;nan
6349;BME280;3207;42.648;23.406;2023-07-22T01:12:27;99791.72;;;24.17;nan
6349;BME280;3207;42.648;23.406;2023-07-22T01:14:54;99798.91;;;24.16;nan
6349;BME280;3207;42.648;23.406;2023-07-22T01:17:21;99775.91;;;24.15;nan
6349;BME280;3207;42.648;23.406;2023-07-22T01:19:50;99773.25;;;24.15;nan
6349;BME280;3207;42.648;23.406;2023-07-22T01:22:17;99775.69;;;24.17;nan
6349;BME280;3207;42.648;23.406;2023-07-22T01:24:46;99771.16;;;24.17;nan
6349;BME280;3207;42.648;23.406;2023-07-22T01:27:12;99768.72;;;24.02;nan
6349;BME280;3207;42.648;23.406;2023-07-22T01:29:39;99765.22;;;24.02;nan
6349;BME280;3207;42.648;23.406;2023-07-22T01:32:07;99776.28;;;23.86;nan
6349;BME280;3207;42.648;23.406;2023-07-22T01:34:34;99769.91;;;23.80;nan
6349;BME280;3207;42.648;23.406;2023-07-22T01:37:01;99772.16;;;23.70;nan
6349;BME280;3207;42.648;23.406;2023-07-22T01:39:28;99773.19;;;23.76;nan
6349;BME280;3207;42.648;23.406;2023-07-22T01:41:56;99761.72;;;23.82;nan
6349;BME280;3207;42.648;23.406;2023-07-22T01:44:23;99770.13;;;23.85;nan
6349;BME280;3207;42.648;23.406;2023-07-22T01:46:50;99783.06;;;23.88;nan
6349;BME280;3207;42.648;23.406;2023-07-22T01:49:17;99788.84;;;23.92;nan
6349;BME280;3207;42.648;23.406;2023-07-22T01:51:44;99783.88;;;23.95;nan
6349;BME280;3207;42.648;23.406;2023-07-22T01:54:11;99783.69;;;23.97;nan
6349;BME280;3207;42.648;23.406;2023-07-22T01:56:38;99756.16;;;23.96;nan
6349;BME280;3207;42.648;23.406;2023-07-22T01:59:07;99755.97;;;23.98;nan
6349;BME280;3207;42.648;23.406;2023-07-22T02:01:33;99764.59;;;24.00;nan
6349;BME280;3207;42.648;23.406;2023-07-22T02:04:00;99771.78;;;23.99;nan
6349;BME280;3207;42.648;23.406;2023-07-22T02:06:27;99760.47;;;23.97;nan
6349;BME280;3207;42.648;23.406;2023-07-22T02:08:54;99766.88;;;24.03;nan
6349;BME280;3207;42.648;23.406;2023-07-22T02:11:21;99767.06;;;24.01;nan
6349;BME280;3207;42.648;23.406;2023-07-22T02:13:48;99758.63;;;23.98;nan
6349;BME280;3207;42.648;23.406;2023-07-22T02:16:16;99758.84;;;23.96;nan
6349;BME280;3207;42.648;23.406;2023-07-22T02:18:44;99758.84;;;23.90;nan
6349;BME280;3207;42.648;23.406;2023-07-22T02:21:10;99762.53;;;23.82;nan
6349;BME280;3207;42.648;23.406;2023-07-22T02:23:37;99775.03;;;23.75;nan
6349;BME280;3207;42.648;23.406;2023-07-22T02:26:04;99783.03;;;23.75;nan
6349;BME280;3207;42.648;23.406;2023-07-22T02:28:32;99779.34;;;23.76;nan
6349;BME280;3207;42.648;23.406;2023-07-22T02:31:01;99786.97;;;23.79;nan
6349;BME280;3207;42.648;23.406;2023-07-22T02:33:33;99791.28;;;23.80;nan
6349;BME280;3207;42.648;23.406;2023-07-22T02:36:00;99794.53;;;23.76;nan
6349;BME280;3207;42.648;23.406;2023-07-22T02:38:27;99779.34;;;23.76;nan
6349;BME280;3207;42.648;23.406;2023-07-22T02:40:54;99777.91;;;23.73;nan
6349;BME280;3207;42.648;23.406;2023-07-22T02:43:20;99754.88;;;23.59;nan
6349;BME280;3207;42.648;23.406;2023-07-22T02:45:47;99786.13;;;23.79;nan
6349;BME280;3207;42.648;23.406;2023-07-22T02:48:14;99773.00;;;23.77;nan
6349;BME280;3207;42.648;23.406;2023-07-22T02:50:42;99765.78;;;23.84;nan
6349;BME280;3207;42.648;23.406;2023-07-22T02:53:09;99763.75;;;23.86;nan
6349;BME280;3207;42.648;23.406;2023-07-22T02:55:36;99752.25;;;23.86;nan
6349;BME280;3207;42.648;23.406;2023-07-22T02:58:02;99748.75;;;23.85;nan
6349;BME280;3207;42.648;23.406;2023-07-22T03:00:30;99757.19;;;23.89;nan
6349;BME280;3207;42.648;23.406;2023-07-22T03:02:57;99757.38;;;23.87;nan
6349;BME280;3207;42.648;23.406;2023-07-22T03:05:26;99763.34;;;23.89;nan
6349;BME280;3207;42.648;23.406;2023-07-22T03:07:55;99754.31;;;23.90;nan
6349;BME280;3207;42.648;23.406;2023-07-22T03:10:22;99749.81;;;23.91;nan
6349;BME280;3207;42.648;23.406;2023-07-22T03:12:51;99745.06;;;23.86;nan
6349;BME280;3207;42.648;23.406;2023-07-22T03:15:20;99742.59;;;23.85;nan
6349;BME280;3207;42.648;23.406;2023-07-22T03:17:47;99746.28;;;23.77;nan
6349;BME280;3207;42.648;23.406;2023-07-22T03:20:14;99739.94;;;23.71;nan
6349;BME280;3207;42.648;23.406;2023-07-22T03:22:42;99729.41;;;23.57;nan
6349;BME280;3207;42.648;23.406;2023-07-22T03:25:11;99744.84;;;23.61;nan
6349;BME280;3207;42.648;23.406;2023-07-22T03:27:39;99736.59;;;23.56;nan
6349;BME280;3207;42.648;23.406;2023-07-22T03:30:07;99729.41;;;23.57;nan
6349;BME280;3207;42.648;23.406;2023-07-22T03:32:36;99730.66;;;23.61;nan
6349;BME280;3207;42.648;23.406;2023-07-22T03:35:03;99725.34;;;23.61;nan
6349;BME280;3207;42.648;23.406;2023-07-22T03:37:30;99726.91;;;23.49;nan
6349;BME280;3207;42.648;23.406;2023-07-22T03:39:57;99719.31;;;23.46;nan
6349;BME280;3207;42.648;23.406;2023-07-22T03:42:25;99717.03;;;23.36;nan
6349;BME280;3207;42.648;23.406;2023-07-22T03:44:51;99715.38;;;23.28;nan
6349;BME280;3207;42.648;23.406;2023-07-22T03:47:19;99719.00;;;23.14;nan
6349;BME280;3207;42.648;23.406;2023-07-22T03:49:46;99720.59;;;23.02;nan
6349;BME280;3207;42.648;23.406;2023-07-22T03:52:12;99735.56;;;23.03;nan
6349;BME280;3207;42.648;23.406;2023-07-22T03:54:43;99735.97;;;23.00;nan
6349;BME280;3207;42.648;23.406;2023-07-22T03:57:10;99742.16;;;23.07;nan
6349;BME280;3207;42.648;23.406;2023-07-22T03:59:39;99766.56;;;23.11;nan
6349;BME280;3207;42.648;23.406;2023-07-22T04:02:05;99759.63;;;23.16;nan
6349;BME280;3207;42.648;23.406;2023-07-22T04:04:31;99756.59;;;23.19;nan
6349;BME280;3207;42.648;23.406;2023-07-22T04:06:58;99768.06;;;23.20;nan
6349;BME280;3207;42.648;23.406;2023-07-22T04:09:27;99781.81;;;23.23;nan
6349;BME280;3207;42.648;23.406;2023-07-22T04:11:53;99797.44;;;23.26;nan
6349;BME280;3207;42.648;23.406;2023-07-22T04:14:20;99804.63;;;23.26;nan
6349;BME280;3207;42.648;23.406;2023-07-22T04:16:48;99812.81;;;23.24;nan
6349;BME280;3207;42.648;23.406;2023-07-22T04:19:15;99816.50;;;23.23;nan
6349;BME280;3207;42.648;23.406;2023-07-22T04:21:43;99819.16;;;23.23;nan
6349;BME280;3207;42.648;23.406;2023-07-22T04:24:09;99827.16;;;23.23;nan
6349;BME280;3207;42.648;23.406;2023-07-22T04:26:36;99824.31;;;23.25;nan
6349;BME280;3207;42.648;23.406;2023-07-22T04:29:03;99844.00;;;23.24;nan
6349;BME280;3207;42.648;23.406;2023-07-22T04:31:37;99843.38;;;23.22;nan
6349;BME280;3207;42.648;23.406;2023-07-22T04:34:05;99843.97;;;23.17;nan
6349;BME280;3207;42.648;23.406;2023-07-22T04:36:33;99851.97;;;23.17;nan
6349;BME280;3207;42.648;23.406;2023-07-22T04:39:00;99853.38;;;23.13;nan
6349;BME280;3207;42.648;23.406;2023-07-22T04:41:27;99865.50;;;23.16;nan
6349;BME280;3207;42.648;23.406;2023-07-22T04:43:53;99875.53;;;23.14;nan
6349;BME280;3207;42.648;23.406;2023-07-22T04:46:20;99881.69;;;23.14;nan
6349;BME280;3207;42.648;23.406;2023-07-22T04:48:47;99884.16;;;23.16;nan
6349;BME280;3207;42.648;23.406;2023-07-22T04:51:15;99885.19;;;23.15;nan
6349;BME280;3207;42.648;23.406;2023-07-22T04:53:42;99898.50;;;23.08;nan
6349;BME280;3207;42.648;23.406;2023-07-22T04:56:09;99899.69;;;23.06;nan
6349;BME280;3207;42.648;23.406;2023-07-22T04:58:35;99897.22;;;23.04;nan
6349;BME280;3207;42.648;23.406;2023-07-22T05:01:02;99898.91;;;23.12;nan
6349;BME280;3207;42.648;23.406;2023-07-22T05:03:29;99907.19;;;23.23;nan
6349;BME280;3207;42.648;23.406;2023-07-22T05:05:56;99902.75;;;23.30;nan
6349;BME280;3207;42.648;23.406;2023-07-22T05:08:24;99904.81;;;23.35;nan
6349;BME280;3207;42.648;23.406;2023-07-22T05:10:51;99904.25;;;23.46;nan
6349;BME280;3207;42.648;23.406;2023-07-22T05:13:18;99903.03;;;23.49;nan
6349;BME280;3207;42.648;23.406;2023-07-22T05:15:45;99912.56;;;23.64;nan
6349;BME280;3207;42.648;23.406;2023-07-22T05:18:12;99907.50;;;23.76;nan
6349;BME280;3207;42.648;23.406;2023-07-22T05:20:39;99914.31;;;23.85;nan
6349;BME280;3207;42.648;23.406;2023-07-22T05:23:06;99917.84;;;23.92;nan
6349;BME280;3207;42.648;23.406;2023-07-22T05:25:34;99920.53;;;23.99;nan
6349;BME280;3207;42.648;23.406;2023-07-22T05:28:01;99924.25;;;24.04;nan
6349;BME280;3207;42.648;23.406;2023-07-22T05:30:27;99924.47;;;24.09;nan
6349;BME280;3207;42.648;23.406;2023-07-22T05:32:54;99922.81;;;24.08;nan
6349;BME280;3207;42.648;23.406;2023-07-22T05:35:21;99927.75;;;24.12;nan
6349;BME280;3207;42.648;23.406;2023-07-22T05:37:48;99926.53;;;24.14;nan
6349;BME280;3207;42.648;23.406;2023-07-22T05:40:15;99920.19;;;24.15;nan
6349;BME280;3207;42.648;23.406;2023-07-22T05:42:43;99924.06;;;24.13;nan
6349;BME280;3207;42.648;23.406;2023-07-22T05:45:10;99916.53;;;24.23;nan
6349;BME280;3207;42.648;23.406;2023-07-22T05:47:39;99916.31;;;24.31;nan
6349;BME280;3207;42.648;23.406;2023-07-22T05:50:06;99926.63;;;24.40;nan
6349;BME280;3207;42.648;23.406;2023-07-22T05:52:33;99921.31;;;24.47;nan
6349;BME280;3207;42.648;23.406;2023-07-22T05:55:00;99918.00;;;24.58;nan
6349;BME280;3207;42.648;23.406;2023-07-22T05:57:27;99922.34;;;24.66;nan
6349;BME280;3207;42.648;23.406;2023-07-22T05:59:55;99925.00;;;24.72;nan
6349;BME280;3207;42.648;23.406;2023-07-22T06:02:22;99929.13;;;24.81;nan
6349;BME280;3207;42.648;23.406;2023-07-22T06:04:48;99935.72;;;24.86;nan
6349;BME280;3207;42.648;23.406;2023-07-22T06:07:15;99934.28;;;24.90;nan
6349;BME280;3207;42.648;23.406;2023-07-22T06:09:43;99929.97;;;24.95;nan
6349;BME280;3207;42.648;23.406;2023-07-22T06:12:10;99937.38;;;25.06;nan
6349;BME280;3207;42.648;23.406;2023-07-22T06:14:38;99943.53;;;25.13;nan
6349;BME280;3207;42.648;23.406;2023-07-22T06:17:06;99951.34;;;25.22;nan
6349;BME280;3207;42.648;23.406;2023-07-22T06:19:33;99944.16;;;25.22;nan
6349;BME280;3207;42.648;23.406;2023-07-22T06:22:00;99950.97;;;25.18;nan
6349;BME280;3207;42.648;23.406;2023-07-22T06:24:27;99935.53;;;25.20;nan
6349;BME280;3207;42.648;23.406;2023-07-22T06:26:53;99950.75;;;25.26;nan
6349;BME280;3207;42.648;23.406;2023-07-22T06:29:20;99948.88;;;25.27;nan
6349;BME280;3207;42.648;23.406;2023-07-22T06:31:47;99949.50;;;25.29;nan
6349;BME280;3207;42.648;23.406;2023-07-22T06:34:15;99950.72;;;25.39;nan
6349;BME280;3207;42.648;23.406;2023-07-22T06:36:42;99953.41;;;25.39;nan
6349;BME280;3207;42.648;23.406;2023-07-22T06:39:09;99953.81;;;25.36;nan
6349;BME280;3207;42.648;23.406;2023-07-22T06:41:35;99951.53;;;25.33;nan
6349;BME280;3207;42.648;23.406;2023-07-22T06:44:02;99948.47;;;25.30;nan
6349;BME280;3207;42.648;23.406;2023-07-22T06:46:29;99946.81;;;25.35;nan
6349;BME280;3207;42.648;23.406;2023-07-22T06:48:56;99957.69;;;25.47;nan
6349;BME280;3207;42.648;23.406;2023-07-22T06:51:24;99956.47;;;25.49;nan
6349;BME280;3207;42.648;23.406;2023-07-22T06:53:51;99957.69;;;25.47;nan
6349;BME280;3207;42.648;23.406;2023-07-22T06:56:18;99962.41;;;25.58;nan
6349;BME280;3207;42.648;23.406;2023-07-22T06:58:44;99973.13;;;25.65;nan
6349;BME280;3207;42.648;23.406;2023-07-22T07:01:12;99965.34;;;25.63;nan
6349;BME280;3207;42.648;23.406;2023-07-22T07:03:39;99971.44;;;25.77;nan
6349;BME280;3207;42.648;23.406;2023-07-22T07:06:06;99963.16;;;25.92;nan
6349;BME280;3207;42.648;23.406;2023-07-22T07:08:34;99964.41;;;25.96;nan
6349;BME280;3207;42.648;23.406;2023-07-22T07:11:02;99976.72;;;26.03;nan
6349;BME280;3207;42.648;23.406;2023-07-22T07:13:29;99978.56;;;26.03;nan
6349;BME280;3207;42.648;23.406;2023-07-22T07:15:56;99992.31;;;26.19;nan
6349;BME280;3207;42.648;23.406;2023-07-22T07:18:22;99983.38;;;26.39;nan
6349;BME280;3207;42.648;23.406;2023-07-22T07:20:49;99990.84;;;26.68;nan
6349;BME280;3207;42.648;23.406;2023-07-22T07:23:16;99996.91;;;26.82;nan
6349;BME280;3207;42.648;23.406;2023-07-22T07:25:44;99996.00;;;27.01;nan
6349;BME280;3207;42.648;23.406;2023-07-22T07:28:11;99985.53;;;27.18;nan
6349;BME280;3207;42.648;23.406;2023-07-22T07:30:40;99999.69;;;27.50;nan
6349;BME280;3207;42.648;23.406;2023-07-22T07:33:06;100002.19;;;27.88;nan
6349;BME280;3207;42.648;23.406;2023-07-22T07:35:33;100005.94;;;28.23;nan
6349;BME280;3207;42.648;23.406;2023-07-22T07:38:00;99999.88;;;28.58;nan
6349;BME280;3207;42.648;23.406;2023-07-22T07:40:27;100004.06;;;28.84;nan
6349;BME280;3207;42.648;23.406;2023-07-22T07:42:55;100003.28;;;29.06;nan
6349;BME280;3207;42.648;23.406;2023-07-22T07:45:22;100004.81;;;29.26;nan
6349;BME280;3207;42.648;23.406;2023-07-22T07:47:49;100002.63;;;29.46;nan
6349;BME280;3207;42.648;23.406;2023-07-22T07:50:16;100012.00;;;29.67;nan
6349;BME280;3207;42.648;23.406;2023-07-22T07:52:43;100018.31;;;29.84;nan
6349;BME280;3207;42.648;23.406;2023-07-22T07:55:10;100026.84;;;29.93;nan
6349;BME280;3207;42.648;23.406;2023-07-22T07:57:37;100030.38;;;29.81;nan
6349;BME280;3207;42.648;23.406;2023-07-22T08:00:06;100028.97;;;29.67;nan
6349;BME280;3207;42.648;23.406;2023-07-22T08:02:34;100028.28;;;29.60;nan
6349;BME280;3207;42.648;23.406;2023-07-22T08:05:01;100027.38;;;29.66;nan
6349;BME280;3207;42.648;23.406;2023-07-22T08:07:28;100026.50;;;29.77;nan
6349;BME280;3207;42.648;23.406;2023-07-22T08:09:55;100027.91;;;29.92;nan
6349;BME280;3207;42.648;23.406;2023-07-22T08:12:23;100022.06;;;30.06;nan
6349;BME280;3207;42.648;23.406;2023-07-22T08:14:52;100018.09;;;29.85;nan
6349;BME280;3207;42.648;23.406;2023-07-22T08:17:20;100015.84;;;29.94;nan
6349;BME280;3207;42.648;23.406;2023-07-22T08:19:47;100017.47;;;30.07;nan
6349;BME280;3207;42.648;23.406;2023-07-22T08:22:14;100016.28;;;30.14;nan
6349;BME280;3207;42.648;23.406;2023-07-22T08:24:41;100014.25;;;30.21;nan
6349;BME280;3207;42.648;23.406;2023-07-22T08:27:08;100026.06;;;30.32;nan
6349;BME280;3207;42.648;23.406;2023-07-22T08:29:35;100024.72;;;30.46;nan
6349;BME280;3207;42.648;23.406;2023-07-22T08:32:03;100021.91;;;30.13;nan
6349;BME280;3207;42.648;23.406;2023-07-22T08:34:31;100015.63;;;29.37;nan
6349;BME280;3207;42.648;23.406;2023-07-22T08:36:58;100021.44;;;28.99;nan
6349;BME280;3207;42.648;23.406;2023-07-22T08:39:25;100017.69;;;29.00;nan
6349;BME280;3207;42.648;23.406;2023-07-22T08:41:53;100024.31;;;28.86;nan
6349;BME280;3207;42.648;23.406;2023-07-22T08:44:21;100030.03;;;28.78;nan
6349;BME280;3207;42.648;23.406;2023-07-22T08:46:55;100036.41;;;28.65;nan
6349;BME280;3207;42.648;23.406;2023-07-22T08:49:23;100034.38;;;28.61;nan
6349;BME280;3207;42.648;23.406;2023-07-22T08:51:53;100030.97;;;28.84;nan
6349;BME280;3207;42.648;23.406;2023-07-22T08:54:20;100026.94;;;29.04;nan
6349;BME280;3207;42.648;23.406;2023-07-22T08:56:48;100021.06;;;28.96;nan
6349;BME280;3207;42.648;23.406;2023-07-22T08:59:17;100024.22;;;28.93;nan
6349;BME280;3207;42.648;23.406;2023-07-22T09:01:45;100020.59;;;28.87;nan
6349;BME280;3207;42.648;23.406;2023-07-22T09:04:12;100028.22;;;28.90;nan
6349;BME280;3207;42.648;23.406;2023-07-22T09:06:41;100039.97;;;28.48;nan
6349;BME280;3207;42.648;23.406;2023-07-22T09:09:10;100041.63;;;28.30;nan
6349;BME280;3207;42.648;23.406;2023-07-22T09:11:38;100027.88;;;28.20;nan
6349;BME280;3207;42.648;23.406;2023-07-22T09:14:05;100026.53;;;28.29;nan
6349;BME280;3207;42.648;23.406;2023-07-22T09:16:32;100039.84;;;28.06;nan
6349;BME280;3207;42.648;23.406;2023-07-22T09:19:06;100046.22;;;27.68;nan
6349;BME280;3207;42.648;23.406;2023-07-22T09:21:33;100036.84;;;27.53;nan
6349;BME280;3207;42.648;23.406;2023-07-22T09:24:01;100031.22;;;27.36;nan
6349;BME280;3207;42.648;23.406;2023-07-22T09:26:32;100041.81;;;27.31;nan
6349;BME280;3207;42.648;23.406;2023-07-22T09:28:59;100038.63;;;27.41;nan
6349;BME280;3207;42.648;23.406;2023-07-22T09:31:26;100043.88;;;27.29;nan
6349;BME280;3207;42.648;23.406;2023-07-22T09:33:53;100031.16;;;27.43;nan
6349;BME280;3207;42.648;23.406;2023-07-22T09:36:20;100033.78;;;27.74;nan
6349;BME280;3207;42.648;23.406;2023-07-22T09:38:59;100041.97;;;27.79;nan
6349;BME280;3207;42.648;23.406;2023-07-22T09:41:28;100038.56;;;27.90;nan
6349;BME280;3207;42.648;23.406;2023-07-22T09:43:56;100043.19;;;28.20;nan
6349;BME280;3207;42.648;23.406;2023-07-22T09:46:31;100045.63;;;28.39;nan
6349;BME280;3207;42.648;23.406;2023-07-22T09:49:02;100039.69;;;28.37;nan
6349;BME280;3207;42.648;23.406;2023-07-22T09:51:33;100039.03;;;28.54;nan
6349;BME280;3207;42.648;23.406;2023-07-22T09:54:02;100041.81;;;28.77;nan
6349;BME280;3207;42.648;23.406;2023-07-22T09:56:30;100037.78;;;28.86;nan
6349;BME280;3207;42.648;23.406;2023-07-22T09:58:59;100019.69;;;28.75;nan
6349;BME280;3207;42.648;23.406;2023-07-22T10:01:26;100025.53;;;28.42;nan
6349;BME280;3207;42.648;23.406;2023-07-22T10:03:55;100018.47;;;28.29;nan
6349;BME280;3207;42.648;23.406;2023-07-22T10:06:24;100032.19;;;28.39;nan
6349;BME280;3207;42.648;23.406;2023-07-22T10:08:53;100031.28;;;28.46;nan
6349;BME280;3207;42.648;23.406;2023-07-22T10:11:22;100030.03;;;28.78;nan
6349;BME280;3207;42.648;23.406;2023-07-22T10:13:50;100021.84;;;28.85;nan
6349;BME280;3207;42.648;23.406;2023-07-22T10:16:18;100032.19;;;28.99;nan
6349;BME280;3207;42.648;23.406;2023-07-22T10:18:46;100020.69;;;28.81;nan
6349;BME280;3207;42.648;23.406;2023-07-22T10:21:13;100021.63;;;28.86;nan
6349;BME280;3207;42.648;23.406;2023-07-22T10:23:41;100028.25;;;29.02;nan
6349;BME280;3207;42.648;23.406;2023-07-22T10:26:08;100023.41;;;29.04;nan
6349;BME280;3207;42.648;23.406;2023-07-22T10:28:39;100028.50;;;29.24;nan
6349;BME280;3207;42.648;23.406;2023-07-22T10:31:07;100029.41;;;29.18;nan
6349;BME280;3207;42.648;23.406;2023-07-22T10:33:35;100034.16;;;29.57;nan
6349;BME280;3207;42.648;23.406;2023-07-22T10:36:05;100025.72;;;29.65;nan
6349;BME280;3207;42.648;23.406;2023-07-22T10:38:32;100032.16;;;29.88;nan
6349;BME280;3207;42.648;23.406;2023-07-22T10:41:00;100028.28;;;29.72;nan
6349;BME280;3207;42.648;23.406;2023-07-22T10:43:29;100020.34;;;29.54;nan
6349;BME280;3207;42.648;23.406;2023-07-22T10:45:57;100020.16;;;29.13;nan
6349;BME280;3207;42.648;23.406;2023-07-22T10:48:27;100038.59;;;29.40;nan
6349;BME280;3207;42.648;23.406;2023-07-22T10:51:05;100016.00;;;29.41;nan
6349;BME280;3207;42.648;23.406;2023-07-22T10:53:32;100021.84;;;29.61;nan
6349;BME280;3207;42.648;23.406;2023-07-22T10:56:07;100019.16;;;29.49;nan
6349;BME280;3207;42.648;23.406;2023-07-22T10:58:57;100001.34;;;29.37;nan
6349;BME280;3207;42.648;23.406;2023-07-22T11:01:31;100014.78;;;29.25;nan
6349;BME280;3207;42.648;23.406;2023-07-22T11:04:21;99998.38;;;29.27;nan
6349;BME280;3207;42.648;23.406;2023-07-22T11:06:58;100008.25;;;29.56;nan
6349;BME280;3207;42.648;23.406;2023-07-22T11:09:49;100007.31;;;29.62;nan
6349;BME280;3207;42.648;23.406;2023-07-22T11:12:17;99992.31;;;29.31;nan
6349;BME280;3207;42.648;23.406;2023-07-22T11:14:47;99982.34;;;29.20;nan
6349;BME280;3207;42.648;23.406;2023-07-22T11:17:15;99988.84;;;29.42;nan
6349;BME280;3207;42.648;23.406;2023-07-22T11:19:43;99998.88;;;29.59;nan
6349;BME280;3207;42.648;23.406;2023-07-22T11:22:11;99994.56;;;29.46;nan
6349;BME280;3207;42.648;23.406;2023-07-22T11:24:40;99989.97;;;29.46;nan
6349;BME280;3207;42.648;23.406;2023-07-22T11:27:08;99988.69;;;29.61;nan
6349;BME280;3207;42.648;23.406;2023-07-22T11:29:35;99978.50;;;29.63;nan
6349;BME280;3207;42.648;23.406;2023-07-22T11:32:03;99980.59;;;29.72;nan
6349;BME280;3207;42.648;23.406;2023-07-22T11:34:30;99981.38;;;30.08;nan
6349;BME280;3207;42.648;23.406;2023-07-22T11:36:57;99981.41;;;30.25;nan
6349;BME280;3207;42.648;23.406;2023-07-22T11:39:27;99978.00;;;30.29;nan
6349;BME280;3207;42.648;23.406;2023-07-22T11:41:59;99975.66;;;30.21;nan
6349;BME280;3207;42.648;23.406;2023-07-22T11:44:27;99978.91;;;30.06;nan
6349;BME280;3207;42.648;23.406;2023-07-22T11:47:03;99979.91;;;29.77;nan
6349;BME280;3207;42.648;23.406;2023-07-22T11:49:32;99967.72;;;29.74;nan
6349;BME280;3207;42.648;23.406;2023-07-22T11:52:00;99955.91;;;29.52;nan
6349;BME280;3207;42.648;23.406;2023-07-22T11:54:29;99965.94;;;29.68;nan
6349;BME280;3207;42.648;23.406;2023-07-22T11:56:57;99962.97;;;30.05;nan
6349;BME280;3207;42.648;23.406;2023-07-22T11:59:34;99950.66;;;30.09;nan
6349;BME280;3207;42.648;23.406;2023-07-22T12:02:01;99949.72;;;29.92;nan
6349;BME280;3207;42.648;23.406;2023-07-22T12:04:29;99913.28;;;29.77;nan
6349;BME280;3207;42.648;23.406;2023-07-22T12:06:56;99936.63;;;29.95;nan
6349;BME280;3207;42.648;23.406;2023-07-22T12:09:23;99931.06;;;29.90;nan
6349;BME280;3207;42.648;23.406;2023-07-22T12:11:56;99934.34;;;29.92;nan
6349;BME280;3207;42.648;23.406;2023-07-22T12:14:24;99918.22;;;29.80;nan
6349;BME280;3207;42.648;23.406;2023-07-22T12:16:55;99925.03;;;29.71;nan
6349;BME280;3207;42.648;23.406;2023-07-22T12:19:23;99919.44;;;29.61;nan
6349;BME280;3207;42.648;23.406;2023-07-22T12:21:50;99915.03;;;29.20;nan
6349;BME280;3207;42.648;23.406;2023-07-22T12:24:16;99914.44;;;29.06;nan
6349;BME280;3207;42.648;23.406;2023-07-22T12:26:43;99906.44;;;28.76;nan
6349;BME280;3207;42.648;23.406;2023-07-22T12:29:11;99907.81;;;28.56;nan
6349;BME280;3207;42.648;23.406;2023-07-22T12:31:38;99902.28;;;28.39;nan
6349;BME280;3207;42.648;23.406;2023-07-22T12:34:05;99900.09;;;28.48;nan
6349;BME280;3207;42.648;23.406;2023-07-22T12:36:32;99889.38;;;28.18;nan
6349;BME280;3207;42.648;23.406;2023-07-22T12:38:58;99883.56;;;28.32;nan
6349;BME280;3207;42.648;23.406;2023-07-22T12:41:25;99892.88;;;28.30;nan
6349;BME280;3207;42.648;23.406;2023-07-22T12:43:52;99891.63;;;28.32;nan
6349;BME280;3207;42.648;23.406;2023-07-22T12:46:20;99893.16;;;28.28;nan
6349;BME280;3207;42.648;23.406;2023-07-22T12:48:47;99892.88;;;28.30;nan
6349;BME280;3207;42.648;23.406;2023-07-22T12:51:14;99888.94;;;28.32;nan
6349;BME280;3207;42.648;23.406;2023-07-22T12:53:41;99867.22;;;28.46;nan
6349;BME280;3207;42.648;23.406;2023-07-22T12:56:08;99861.38;;;28.49;nan
6349;BME280;3207;42.648;23.406;2023-07-22T12:58:34;99854.22;;;28.42;nan
6349;BME280;3207;42.648;23.406;2023-07-22T13:01:01;99856.25;;;28.59;nan
6349;BME280;3207;42.648;23.406;2023-07-22T13:03:29;99867.34;;;28.74;nan
6349;BME280;3207;42.648;23.406;2023-07-22T13:05:56;99864.34;;;28.94;nan
6349;BME280;3207;42.648;23.406;2023-07-22T13:08:23;99869.84;;;28.87;nan
6349;BME280;3207;42.648;23.406;2023-07-22T13:10:50;99857.06;;;28.71;nan
6349;BME280;3207;42.648;23.406;2023-07-22T13:13:17;99852.03;;;28.63;nan
6349;BME280;3207;42.648;23.406;2023-07-22T13:15:44;99844.94;;;28.80;nan
6349;BME280;3207;42.648;23.406;2023-07-22T13:18:10;99843.38;;;28.72;nan
6349;BME280;3207;42.648;23.406;2023-07-22T13:20:40;99839.75;;;28.67;nan
6349;BME280;3207;42.648;23.406;2023-07-22T13:23:07;99844.44;;;28.83;nan
6349;BME280;3207;42.648;23.406;2023-07-22T13:25:33;99860.38;;;28.96;nan
6349;BME280;3207;42.648;23.406;2023-07-22T13:28:00;99857.69;;;28.96;nan
6349;BME280;3207;42.648;23.406;2023-07-22T13:30:27;99867.16;;;28.87;nan
6349;BME280;3207;42.648;23.406;2023-07-22T13:32:54;99871.84;;;28.80;nan